Time;durP1;ratioP1;P1;durP2;ratioP2;P2;SDS_P1;SDS_P2;PMS_P1;PMS_P2;Temp;Humidity;BMP_temperature;BMP_pressure;BME280_temperature;BME280_humidity;BME280_pressure;Samples;Min_cycle;Max_cycle;Signal;HPM_P1;HPM_P2
2021/09/16 00:01:33;;;;;;;3.97;2.10;;;23.10;64.80;;;;;;5090674;28;20834;-64
2021/09/16 00:03:59;;;;;;;3.08;1.90;;;23.10;64.80;;;;;;5107808;28;20115;-63
2021/09/16 00:06:24;;;;;;;4.68;2.10;;;23.10;64.70;;;;;;5106408;28;20062;-64
2021/09/16 00:08:50;;;;;;;5.20;2.30;;;23.10;64.70;;;;;;5105216;28;20081;-64
2021/09/16 00:11:16;;;;;;;2.88;1.88;;;23.10;64.70;;;;;;5105404;28;20031;-64
2021/09/16 00:13:41;;;;;;;2.80;1.75;;;23.10;64.70;;;;;;5103942;28;20040;-63
2021/09/16 00:16:07;;;;;;;3.13;1.88;;;23.10;64.60;;;;;;5105119;28;20047;-64
2021/09/16 00:18:33;;;;;;;2.83;1.60;;;23.10;64.70;;;;;;5102962;28;20031;-64
2021/09/16 00:20:58;;;;;;;3.28;2.05;;;23.10;64.60;;;;;;5106599;28;20483;-64
2021/09/16 00:23:24;;;;;;;2.28;1.90;;;23.10;64.60;;;;;;5102351;28;20024;-63
2021/09/16 00:25:50;;;;;;;3.63;2.05;;;23.00;64.60;;;;;;5106157;28;20083;-63
2021/09/16 00:28:15;;;;;;;4.63;2.33;;;23.00;64.60;;;;;;5105821;28;20039;-64
2021/09/16 00:30:41;;;;;;;2.97;1.92;;;23.00;64.60;;;;;;5105666;28;20427;-65
2021/09/16 00:33:07;;;;;;;2.17;1.67;;;23.00;64.60;;;;;;5104041;28;20039;-64
2021/09/16 00:35:32;;;;;;;3.00;1.83;;;23.00;64.60;;;;;;5103881;28;20023;-64
2021/09/16 00:37:58;;;;;;;3.33;1.90;;;23.00;64.60;;;;;;5104266;28;20084;-63
2021/09/16 00:40:24;;;;;;;2.17;1.73;;;23.00;64.50;;;;;;5098875;28;20032;-63
2021/09/16 00:42:50;;;;;;;1.92;1.60;;;23.00;64.60;;;;;;5100014;28;20027;-64
2021/09/16 00:45:15;;;;;;;2.25;1.77;;;23.00;64.50;;;;;;5110892;28;20036;-63
2021/09/16 00:47:45;;;;;;;3.05;2.03;;;23.00;64.60;;;;;;5103979;28;20031;-64
2021/09/16 00:50:12;;;;;;;3.67;1.88;;;23.00;64.50;;;;;;5098658;28;20384;-63
2021/09/16 00:52:41;;;;;;;2.20;1.80;;;23.00;64.50;;;;;;5096998;28;20107;-64
2021/09/16 00:55:10;;;;;;;2.83;1.90;;;23.00;64.50;;;;;;5105625;28;20438;-63
2021/09/16 00:57:38;;;;;;;3.67;2.00;;;23.00;64.50;;;;;;5102078;28;20088;-63
2021/09/16 01:00:09;;;;;;;4.68;1.73;;;23.00;64.50;;;;;;5109183;28;20513;-63
2021/09/16 01:02:36;;;;;;;3.10;1.70;;;23.00;64.50;;;;;;5102735;28;20035;-63
2021/09/16 01:05:02;;;;;;;2.10;1.90;;;22.90;64.40;;;;;;5107123;28;20058;-63
2021/09/16 01:07:29;;;;;;;2.15;1.67;;;23.00;64.50;;;;;;5101787;28;20494;-63
2021/09/16 01:09:57;;;;;;;2.70;1.63;;;22.90;64.40;;;;;;5111021;28;20020;-63
2021/09/16 01:12:23;;;;;;;2.47;1.67;;;23.00;64.50;;;;;;5103789;28;20032;-63
2021/09/16 01:14:49;;;;;;;3.63;2.05;;;22.90;64.40;;;;;;5110755;28;20579;-64
2021/09/16 01:17:15;;;;;;;2.50;1.60;;;22.90;64.40;;;;;;5109365;28;20108;-64
2021/09/16 01:19:40;;;;;;;2.33;1.67;;;23.00;64.40;;;;;;5110394;28;20038;-64
2021/09/16 01:22:08;;;;;;;2.58;1.40;;;22.90;64.40;;;;;;5109237;28;20081;-63
2021/09/16 01:24:34;;;;;;;2.35;1.38;;;22.90;64.40;;;;;;5110244;28;20063;-63
2021/09/16 01:26:59;;;;;;;4.03;1.55;;;22.90;64.40;;;;;;5109128;28;20082;-63
2021/09/16 01:29:25;;;;;;;2.20;1.52;;;22.90;64.40;;;;;;5110723;28;20482;-63
2021/09/16 01:31:51;;;;;;;3.70;1.88;;;22.90;64.30;;;;;;5108479;28;20028;-64
2021/09/16 01:34:18;;;;;;;2.63;1.38;;;22.90;64.30;;;;;;5110374;28;20437;-63
2021/09/16 01:36:46;;;;;;;2.13;1.40;;;22.90;64.30;;;;;;5109733;28;20027;-63
2021/09/16 01:39:14;;;;;;;1.35;1.25;;;22.90;64.30;;;;;;5110161;28;20424;-64
2021/09/16 01:41:40;;;;;;;1.70;1.30;;;22.90;64.30;;;;;;5107960;28;20043;-64
2021/09/16 01:44:06;;;;;;;1.83;1.30;;;22.90;64.30;;;;;;5109890;28;20047;-64
2021/09/16 01:46:33;;;;;;;1.90;1.50;;;22.90;64.30;;;;;;5109841;28;20031;-63
2021/09/16 01:49:00;;;;;;;2.20;1.35;;;22.90;64.30;;;;;;5109706;28;20467;-64
2021/09/16 01:51:26;;;;;;;2.55;1.67;;;22.90;64.30;;;;;;5109501;28;20448;-63
2021/09/16 01:53:52;;;;;;;2.50;1.30;;;22.90;64.30;;;;;;5108101;28;20019;-63
2021/09/16 01:56:18;;;;;;;2.50;1.45;;;22.90;64.30;;;;;;5110016;28;20401;-63
2021/09/16 01:58:43;;;;;;;2.30;1.20;;;22.80;64.20;;;;;;5110128;28;20072;-63
2021/09/16 02:01:09;;;;;;;1.70;1.50;;;22.80;64.20;;;;;;5109841;28;20039;-63
2021/09/16 02:03:35;;;;;;;2.35;1.40;;;22.80;64.20;;;;;;5109293;28;20110;-63
2021/09/16 02:06:01;;;;;;;1.70;1.20;;;22.80;64.20;;;;;;5109852;28;20032;-63
2021/09/16 02:08:26;;;;;;;1.85;1.35;;;22.90;64.20;;;;;;5104173;28;20020;-63
2021/09/16 02:10:53;;;;;;;1.20;1.10;;;22.80;64.20;;;;;;5099224;28;20035;-63
2021/09/16 02:13:19;;;;;;;1.92;1.33;;;22.80;64.80;;;;;;5100203;28;20027;-63
2021/09/16 02:15:44;;;;;;;1.70;1.35;;;22.80;64.20;;;;;;5100374;28;20036;-63
2021/09/16 02:18:10;;;;;;;1.80;1.35;;;22.80;64.20;;;;;;5095250;28;20506;-64
2021/09/16 02:20:36;;;;;;;2.10;1.35;;;22.80;64.10;;;;;;5094302;28;20051;-63
2021/09/16 02:23:01;;;;;;;1.50;1.10;;;22.80;64.10;;;;;;5102392;28;20122;-63
2021/09/16 02:25:27;;;;;;;1.55;1.20;;;22.80;64.20;;;;;;5102137;28;20073;-63
2021/09/16 02:27:53;;;;;;;2.65;1.30;;;22.80;64.20;;;;;;5106583;28;20398;-63
2021/09/16 02:30:19;;;;;;;2.03;1.40;;;22.80;64.10;;;;;;5098348;28;20358;-63
2021/09/16 02:32:44;;;;;;;1.48;1.30;;;22.80;64.10;;;;;;5095769;28;20032;-63
2021/09/16 02:35:11;;;;;;;3.10;1.35;;;22.80;64.10;;;;;;5100822;28;20039;-63
2021/09/16 02:37:38;;;;;;;1.95;1.30;;;22.80;64.10;;;;;;5095857;28;20379;-63
2021/09/16 02:40:05;;;;;;;1.92;1.30;;;22.80;64.10;;;;;;5099675;28;20044;-63
2021/09/16 02:42:31;;;;;;;1.50;1.23;;;22.80;64.10;;;;;;5101532;28;20034;-63
2021/09/16 02:44:57;;;;;;;1.55;1.13;;;22.80;64.10;;;;;;5099464;28;20491;-63
2021/09/16 02:47:22;;;;;;;1.35;1.10;;;22.80;64.10;;;;;;5106709;28;20083;-63
2021/09/16 02:49:48;;;;;;;1.70;1.48;;;22.70;64.10;;;;;;5107469;28;20444;-63
2021/09/16 02:52:13;;;;;;;2.60;1.55;;;22.70;64.10;;;;;;5100163;28;20098;-63
2021/09/16 02:54:39;;;;;;;1.80;1.38;;;22.80;64.10;;;;;;5095821;28;20117;-63
2021/09/16 02:57:05;;;;;;;1.83;1.20;;;22.70;64.10;;;;;;5101419;28;20042;-63
2021/09/16 02:59:31;;;;;;;2.33;1.10;;;22.80;64.10;;;;;;5096570;28;20032;-63
2021/09/16 03:01:56;;;;;;;2.00;1.15;;;22.70;64.10;;;;;;5103137;27;20377;-63
2021/09/16 03:04:22;;;;;;;1.70;1.20;;;22.70;64.00;;;;;;5102237;27;20158;-63
2021/09/16 03:06:48;;;;;;;2.75;1.10;;;22.70;64.00;;;;;;5103418;28;20030;-64
2021/09/16 03:09:13;;;;;;;1.60;1.23;;;22.70;64.00;;;;;;5109148;27;20555;-64
2021/09/16 03:11:39;;;;;;;1.33;1.05;;;22.70;64.00;;;;;;5106402;28;20028;-64
2021/09/16 03:14:05;;;;;;;1.02;0.95;;;22.70;64.00;;;;;;5107249;28;20478;-64
2021/09/16 03:16:31;;;;;;;2.10;1.10;;;22.70;64.00;;;;;;5108385;28;20027;-64
2021/09/16 03:18:56;;;;;;;2.15;1.10;;;22.70;64.00;;;;;;5105092;28;20023;-64
2021/09/16 03:21:22;;;;;;;1.48;1.08;;;22.70;64.00;;;;;;5108465;28;20044;-64
2021/09/16 03:23:48;;;;;;;2.15;1.40;;;22.70;64.00;;;;;;5108058;28;20133;-64
2021/09/16 03:26:14;;;;;;;1.23;1.00;;;22.70;64.00;;;;;;5106489;28;20035;-63
2021/09/16 03:28:40;;;;;;;1.73;0.90;;;22.70;64.00;;;;;;5108480;28;20030;-63
2021/09/16 03:31:07;;;;;;;1.45;1.13;;;22.70;64.00;;;;;;5108276;28;20024;-63
2021/09/16 03:33:33;;;;;;;1.38;1.00;;;22.70;64.00;;;;;;5108167;28;20363;-63
2021/09/16 03:35:59;;;;;;;1.10;0.95;;;22.70;64.00;;;;;;5106273;28;20118;-64
2021/09/16 03:38:25;;;;;;;1.85;0.93;;;22.70;64.00;;;;;;5086853;28;20114;-63
2021/09/16 03:40:50;;;;;;;1.17;1.08;;;22.70;64.00;;;;;;5104381;28;20146;-63
2021/09/16 03:43:16;;;;;;;2.08;1.33;;;22.70;64.00;;;;;;5108056;28;20105;-63
2021/09/16 03:45:42;;;;;;;1.40;1.17;;;22.60;64.00;;;;;;5107867;28;20115;-64
2021/09/16 03:48:08;;;;;;;1.63;1.10;;;22.60;63.90;;;;;;5106942;28;20031;-63
2021/09/16 03:50:34;;;;;;;1.70;1.10;;;22.70;63.90;;;;;;5107738;28;20020;-63
2021/09/16 03:53:00;;;;;;;1.55;1.10;;;22.70;64.00;;;;;;5108192;28;20027;-63
2021/09/16 03:55:26;;;;;;;1.20;0.95;;;22.70;64.00;;;;;;5107760;28;20110;-63
2021/09/16 03:57:52;;;;;;;1.10;1.00;;;22.60;63.90;;;;;;5107567;28;20088;-64
2021/09/16 04:00:18;;;;;;;1.90;1.10;;;22.70;64.60;;;;;;5108027;28;20729;-64
2021/09/16 04:02:43;;;;;;;1.17;1.08;;;22.60;63.90;;;;;;5107937;28;20020;-63
2021/09/16 04:05:09;;;;;;;1.17;1.00;;;22.60;63.90;;;;;;5106224;28;20371;-63
2021/09/16 04:07:35;;;;;;;1.17;1.00;;;22.60;63.90;;;;;;5107857;28;20054;-63
2021/09/16 04:10:01;;;;;;;1.13;1.00;;;22.60;63.90;;;;;;5106575;28;20024;-63
2021/09/16 04:12:26;;;;;;;1.17;1.08;;;22.60;63.90;;;;;;5104415;28;20032;-64
2021/09/16 04:14:53;;;;;;;1.30;1.05;;;22.60;63.90;;;;;;5100588;28;20103;-64
2021/09/16 04:17:18;;;;;;;1.10;1.00;;;22.60;63.90;;;;;;5109266;28;20031;-63
2021/09/16 04:19:44;;;;;;;1.05;1.00;;;22.60;63.90;;;;;;5094525;28;20024;-63
2021/09/16 04:22:09;;;;;;;1.30;1.10;;;22.60;63.90;;;;;;5111212;28;20061;-64
2021/09/16 04:24:35;;;;;;;1.13;0.93;;;22.60;63.90;;;;;;5111499;28;20137;-65
2021/09/16 04:27:01;;;;;;;1.00;0.90;;;22.60;63.90;;;;;;5108703;28;20077;-65
2021/09/16 04:29:27;;;;;;;1.50;0.95;;;22.60;63.90;;;;;;5111491;28;20035;-64
2021/09/16 04:31:52;;;;;;;0.82;0.80;;;22.60;64.00;;;;;;5104211;28;20446;-65
2021/09/16 04:34:18;;;;;;;1.20;1.00;;;22.60;63.90;;;;;;5093512;28;20032;-64
2021/09/16 04:36:43;;;;;;;1.25;1.00;;;22.60;64.00;;;;;;5101456;28;20073;-64
2021/09/16 04:39:09;;;;;;;1.05;0.98;;;22.60;63.90;;;;;;5103008;28;20032;-63
2021/09/16 04:41:35;;;;;;;0.82;0.82;;;22.60;63.90;;;;;;5099228;28;20020;-63
2021/09/16 04:44:01;;;;;;;1.00;0.80;;;22.60;64.00;;;;;;5101480;28;20054;-64
2021/09/16 04:46:26;;;;;;;1.05;0.95;;;22.60;63.90;;;;;;5102762;28;20043;-64
2021/09/16 04:48:52;;;;;;;1.10;1.00;;;22.60;64.00;;;;;;5097979;28;20035;-64
2021/09/16 04:51:18;;;;;;;1.05;0.93;;;22.50;63.90;;;;;;5106814;28;20046;-64
2021/09/16 04:53:43;;;;;;;1.27;1.17;;;22.60;63.90;;;;;;5096263;28;20039;-64
2021/09/16 04:56:09;;;;;;;1.75;1.00;;;22.60;64.00;;;;;;5102273;28;20028;-64
2021/09/16 04:58:34;;;;;;;1.50;0.90;;;22.60;64.00;;;;;;5097114;28;20031;-64
2021/09/16 05:01:03;;;;;;;1.17;0.90;;;22.50;63.90;;;;;;5103014;28;20047;-64
2021/09/16 05:03:29;;;;;;;1.65;1.00;;;22.60;64.00;;;;;;5095801;28;20423;-64
2021/09/16 05:05:54;;;;;;;0.75;0.73;;;22.50;64.50;;;;;;5102313;28;20130;-65
2021/09/16 05:08:20;;;;;;;1.25;1.10;;;22.50;63.90;;;;;;5104031;28;20039;-64
2021/09/16 05:10:46;;;;;;;1.15;1.00;;;22.60;64.00;;;;;;5110449;28;20066;-64
2021/09/16 05:13:12;;;;;;;1.05;0.90;;;22.50;63.90;;;;;;5109354;28;20024;-64
2021/09/16 05:15:38;;;;;;;2.17;0.95;;;22.50;63.90;;;;;;5109093;28;20071;-64
2021/09/16 05:18:03;;;;;;;1.90;1.05;;;22.50;64.00;;;;;;5111181;28;20028;-64
2021/09/16 05:20:29;;;;;;;1.02;0.90;;;22.50;64.00;;;;;;5110448;27;20035;-64
2021/09/16 05:22:55;;;;;;;1.02;0.90;;;22.50;63.90;;;;;;5110118;28;20376;-64
2021/09/16 05:25:21;;;;;;;0.93;0.70;;;22.50;64.00;;;;;;5109882;28;20128;-64
2021/09/16 05:27:47;;;;;;;1.08;0.90;;;22.50;63.90;;;;;;5110232;28;20028;-64
2021/09/16 05:30:14;;;;;;;1.15;0.90;;;22.50;64.00;;;;;;5110846;28;20386;-64
2021/09/16 05:32:40;;;;;;;1.02;0.90;;;22.50;64.00;;;;;;5108092;28;20016;-63
2021/09/16 05:35:06;;;;;;;0.60;0.60;;;22.50;64.00;;;;;;5108882;28;20064;-64
2021/09/16 05:37:32;;;;;;;0.82;0.60;;;22.50;64.00;;;;;;5110522;28;20024;-64
2021/09/16 05:39:58;;;;;;;0.95;0.70;;;22.50;64.00;;;;;;5109835;28;20024;-64
2021/09/16 05:42:26;;;;;;;0.80;0.80;;;22.50;64.00;;;;;;5109997;28;20059;-64
2021/09/16 05:44:54;;;;;;;0.73;0.70;;;22.50;64.00;;;;;;5109488;28;20035;-64
2021/09/16 05:47:20;;;;;;;0.73;0.73;;;22.50;64.00;;;;;;5109958;28;20428;-64
2021/09/16 05:49:46;;;;;;;2.15;0.80;;;22.50;64.00;;;;;;5109734;27;20027;-64
2021/09/16 05:52:11;;;;;;;0.90;0.90;;;22.50;64.00;;;;;;5087497;28;20032;-64
2021/09/16 05:54:37;;;;;;;0.90;0.90;;;22.50;64.00;;;;;;5102935;28;20609;-64
2021/09/16 05:57:04;;;;;;;1.20;1.10;;;22.50;64.00;;;;;;5095150;28;20042;-64
2021/09/16 05:59:30;;;;;;;0.90;0.90;;;22.50;64.00;;;;;;5109788;28;20034;-64
2021/09/16 06:01:57;;;;;;;1.10;1.00;;;22.50;64.00;;;;;;5102739;28;20024;-64
2021/09/16 06:04:23;;;;;;;1.05;0.93;;;22.50;64.00;;;;;;5106989;28;20098;-65
2021/09/16 06:06:49;;;;;;;0.98;0.63;;;22.50;64.00;;;;;;5107334;28;20020;-63
2021/09/16 06:09:15;;;;;;;1.00;0.77;;;22.50;64.00;;;;;;5109518;28;20027;-64
2021/09/16 06:11:41;;;;;;;1.40;0.93;;;22.50;64.00;;;;;;5112383;27;20023;-64
2021/09/16 06:14:09;;;;;;;1.00;0.90;;;22.50;64.00;;;;;;5108143;28;20494;-64
2021/09/16 06:16:35;;;;;;;0.88;0.73;;;22.50;64.00;;;;;;5110427;27;20138;-64
2021/09/16 06:19:00;;;;;;;1.38;0.95;;;22.50;64.00;;;;;;5109469;28;20168;-64
2021/09/16 06:21:26;;;;;;;0.85;0.85;;;22.50;64.00;;;;;;5094565;28;20034;-64
2021/09/16 06:23:52;;;;;;;1.33;1.02;;;22.50;64.00;;;;;;5109019;28;20047;-63
2021/09/16 06:26:18;;;;;;;1.10;0.93;;;22.50;64.00;;;;;;5107687;28;20048;-64
2021/09/16 06:28:44;;;;;;;1.60;0.95;;;22.50;64.00;;;;;;5109185;28;20081;-63
2021/09/16 06:31:10;;;;;;;0.80;0.80;;;22.50;64.00;;;;;;5107695;28;20024;-63
2021/09/16 06:33:36;;;;;;;0.75;0.75;;;22.50;64.00;;;;;;5109385;28;20429;-62
2021/09/16 06:36:03;;;;;;;1.05;0.70;;;22.50;64.00;;;;;;5108367;28;20113;-63
2021/09/16 06:38:29;;;;;;;1.10;1.00;;;22.40;64.00;;;;;;5108910;28;20107;-64
2021/09/16 06:40:55;;;;;;;1.60;0.80;;;22.50;64.00;;;;;;5109445;28;20114;-64
2021/09/16 06:43:21;;;;;;;0.95;0.80;;;22.40;64.00;;;;;;5106418;28;20028;-63
2021/09/16 06:45:46;;;;;;;1.00;0.80;;;22.50;64.00;;;;;;5107970;28;20123;-62
2021/09/16 06:48:12;;;;;;;0.82;0.82;;;22.50;64.00;;;;;;5109010;28;20030;-63
2021/09/16 06:50:38;;;;;;;1.83;1.00;;;22.40;64.00;;;;;;5108928;28;20032;-62
2021/09/16 06:53:04;;;;;;;0.88;0.80;;;22.50;64.10;;;;;;5114540;27;20070;-62
2021/09/16 06:55:30;;;;;;;0.80;0.70;;;22.50;64.10;;;;;;5107026;27;20034;-63
2021/09/16 06:57:55;;;;;;;1.23;0.98;;;22.50;64.10;;;;;;5114974;27;20375;-62
2021/09/16 07:00:21;;;;;;;1.25;0.95;;;22.40;64.00;;;;;;5119529;27;20031;-63
2021/09/16 07:02:49;;;;;;;0.80;0.75;;;22.50;64.10;;;;;;5107495;28;20099;-63
2021/09/16 07:05:15;;;;;;;0.65;0.63;;;22.40;64.00;;;;;;5118337;27;20070;-62
2021/09/16 07:07:41;;;;;;;0.60;0.60;;;22.50;64.00;;;;;;5110066;27;20488;-63
2021/09/16 07:10:08;;;;;;;0.82;0.80;;;22.40;64.00;;;;;;5106376;28;20565;-63
2021/09/16 07:12:33;;;;;;;0.98;0.80;;;22.40;64.00;;;;;;5107095;28;20036;-64
2021/09/16 07:14:59;;;;;;;1.00;0.70;;;22.50;64.00;;;;;;5104559;28;20028;-63
2021/09/16 07:17:25;;;;;;;1.05;0.90;;;22.50;64.00;;;;;;5100212;28;20089;-63
2021/09/16 07:19:51;;;;;;;1.08;0.90;;;22.50;64.00;;;;;;5101214;28;20039;-63
2021/09/16 07:22:18;;;;;;;0.88;0.77;;;22.50;64.00;;;;;;5101984;28;20043;-63
2021/09/16 07:24:44;;;;;;;1.35;0.90;;;22.50;64.00;;;;;;5104243;28;20347;-63
2021/09/16 07:27:10;;;;;;;1.33;0.70;;;22.50;64.00;;;;;;5099667;28;20040;-63
2021/09/16 07:29:35;;;;;;;1.00;0.80;;;22.50;64.00;;;;;;5101104;28;20607;-63
2021/09/16 07:32:02;;;;;;;1.35;0.80;;;22.50;64.00;;;;;;5101599;28;20027;-63
2021/09/16 07:34:27;;;;;;;1.00;0.90;;;22.50;64.00;;;;;;5103824;28;20400;-64
2021/09/16 07:36:53;;;;;;;1.00;0.88;;;22.50;64.00;;;;;;5103504;28;20046;-63
2021/09/16 07:39:20;;;;;;;0.75;0.70;;;22.50;64.00;;;;;;5100876;28;20039;-63
2021/09/16 07:41:47;;;;;;;1.13;0.77;;;22.50;63.90;;;;;;5103839;28;20063;-63
2021/09/16 07:44:13;;;;;;;0.95;0.73;;;22.50;63.90;;;;;;5102673;28;20078;-63
2021/09/16 07:46:39;;;;;;;0.88;0.88;;;22.50;63.90;;;;;;5098977;28;20028;-64
2021/09/16 07:49:05;;;;;;;1.58;0.95;;;22.50;63.90;;;;;;5100601;28;20035;-63
2021/09/16 07:51:31;;;;;;;1.67;1.42;;;22.50;63.90;;;;;;5098192;28;20024;-63
2021/09/16 07:53:57;;;;;;;5.65;0.98;;;22.50;63.90;;;;;;5107900;28;20386;-63
2021/09/16 07:56:23;;;;;;;1.00;0.70;;;22.60;63.90;;;;;;5100738;28;20016;-63
2021/09/16 07:58:49;;;;;;;0.85;0.85;;;22.50;63.80;;;;;;5105820;28;20047;-63
2021/09/16 08:01:14;;;;;;;0.80;0.80;;;22.50;63.80;;;;;;5103057;28;20024;-63
2021/09/16 08:03:40;;;;;;;0.70;0.70;;;22.60;63.80;;;;;;5106746;27;20161;-63
2021/09/16 08:06:06;;;;;;;1.42;0.80;;;22.50;63.80;;;;;;5103756;28;20035;-62
2021/09/16 08:08:32;;;;;;;1.17;0.80;;;22.60;63.80;;;;;;5107690;28;20020;-64
2021/09/16 08:10:58;;;;;;;0.70;0.70;;;22.60;63.80;;;;;;5110191;28;20034;-63
2021/09/16 08:13:24;;;;;;;0.80;0.68;;;22.60;63.80;;;;;;5111740;28;20019;-63
2021/09/16 08:15:51;;;;;;;1.75;0.95;;;22.60;63.80;;;;;;5110982;28;20101;-63
2021/09/16 08:18:17;;;;;;;0.98;0.95;;;22.60;63.80;;;;;;5111261;28;20034;-63
2021/09/16 08:20:47;;;;;;;0.60;0.60;;;22.60;63.80;;;;;;5111065;28;20080;-63
2021/09/16 08:23:13;;;;;;;0.75;0.60;;;22.60;63.70;;;;;;5110454;28;20031;-63
2021/09/16 08:25:39;;;;;;;1.10;1.10;;;22.60;63.80;;;;;;5109245;28;20494;-64
2021/09/16 08:28:05;;;;;;;1.10;0.75;;;22.60;63.80;;;;;;5106995;28;20065;-63
2021/09/16 08:30:31;;;;;;;1.40;0.60;;;22.60;63.70;;;;;;5109234;28;20549;-63
2021/09/16 08:32:57;;;;;;;0.82;0.82;;;22.60;63.80;;;;;;5109600;28;20020;-64
2021/09/16 08:35:23;;;;;;;0.90;0.70;;;22.60;63.80;;;;;;5110471;28;20114;-64
2021/09/16 08:37:49;;;;;;;1.05;0.70;;;22.70;63.80;;;;;;5096612;27;20097;-64
2021/09/16 08:40:15;;;;;;;0.80;0.80;;;22.60;63.70;;;;;;5099480;27;20509;-62
2021/09/16 08:42:43;;;;;;;2.10;1.00;;;22.60;63.70;;;;;;5106723;27;20106;-61
2021/09/16 08:45:15;;;;;;;1.73;1.02;;;22.70;63.80;;;;;;5108165;27;20035;-66
2021/09/16 08:47:42;;;;;;;1.88;0.80;;;22.70;63.80;;;;;;5102181;28;20011;-65
2021/09/16 08:50:09;;;;;;;0.80;0.80;;;22.70;63.80;;;;;;5104049;27;20372;-64
2021/09/16 08:52:39;;;;;;;1.63;0.90;;;22.70;63.90;;;;;;5106587;27;20031;-65
2021/09/16 08:55:07;;;;;;;1.02;0.80;;;22.70;63.90;;;;;;5108327;27;20482;-64
2021/09/16 08:57:40;;;;;;;1.08;0.80;;;22.70;63.90;;;;;;5113245;27;20023;-63
2021/09/16 09:00:10;;;;;;;1.23;1.10;;;22.70;63.90;;;;;;5107933;27;20032;-63
2021/09/16 09:02:37;;;;;;;1.08;0.90;;;22.70;63.90;;;;;;5104203;28;20055;-64
2021/09/16 09:05:05;;;;;;;1.95;0.82;;;22.70;63.90;;;;;;5112743;27;20351;-63
2021/09/16 09:08:02;;;;;;;0.88;0.77;;;22.80;64.00;;;;;;5104729;28;20020;-64
2021/09/16 09:10:32;;;;;;;0.70;0.70;;;22.80;63.90;;;;;;5087087;27;20028;-65
2021/09/16 09:12:58;;;;;;;0.73;0.73;;;22.80;64.00;;;;;;5105661;28;20027;-64
2021/09/16 09:15:24;;;;;;;1.65;0.80;;;22.80;64.00;;;;;;5104600;28;20439;-67
2021/09/16 09:18:05;;;;;;;1.17;0.70;;;22.80;64.00;;;;;;5104111;27;20066;-66
2021/09/16 09:20:32;;;;;;;2.25;0.80;;;22.80;64.00;;;;;;5105635;27;20031;-66
2021/09/16 09:22:58;;;;;;;1.05;0.82;;;22.90;64.00;;;;;;5093674;27;20058;-64
2021/09/16 09:25:25;;;;;;;1.58;0.95;;;22.90;64.00;;;;;;5105961;28;20479;-63
2021/09/16 09:27:55;;;;;;;1.10;0.90;;;22.90;63.80;;;;;;5099671;27;20036;-62
2021/09/16 09:30:31;;;;;;;1.08;1.00;;;23.00;63.80;;;;;;5104310;28;20027;-63
2021/09/16 09:32:58;;;;;;;1.42;0.82;;;23.00;63.70;;;;;;5097381;28;20390;-63
2021/09/16 09:35:42;;;;;;;1.73;0.93;;;23.00;63.70;;;;;;5102463;28;20036;-63
2021/09/16 09:38:18;;;;;;;1.80;1.05;;;23.00;63.60;;;;;;5103400;27;20042;-63
2021/09/16 09:40:47;;;;;;;1.10;1.00;;;23.00;63.50;;;;;;5092441;28;20339;-63
2021/09/16 09:43:35;;;;;;;1.13;0.90;;;23.00;63.50;;;;;;5105249;28;20492;-63
2021/09/16 09:46:17;;;;;;;0.80;0.80;;;23.00;63.40;;;;;;5101535;28;20021;-63
2021/09/16 09:48:59;;;;;;;0.85;0.80;;;23.00;63.40;;;;;;5094736;28;20101;-63
2021/09/16 09:51:34;;;;;;;;;;;23.00;63.40;;;;;;5095877;27;20371;-63
2021/09/16 09:54:19;;;;;;;0.90;0.90;;;23.00;63.40;;;;;;5102608;28;19919;-63
2021/09/16 09:57:04;;;;;;;0.77;0.73;;;23.00;63.30;;;;;;5104582;27;20036;-63
2021/09/16 09:59:48;;;;;;;0.73;0.65;;;23.00;63.20;;;;;;5097377;27;20396;-63
2021/09/16 10:02:15;;;;;;;0.80;0.80;;;23.10;63.10;;;;;;5102948;28;20534;-63
2021/09/16 10:04:42;;;;;;;0.88;0.88;;;23.10;63.00;;;;;;5095083;27;20559;-63
2021/09/16 10:07:08;;;;;;;1.45;0.90;;;23.10;63.00;;;;;;5102118;28;20038;-63
2021/09/16 10:09:34;;;;;;;0.73;0.73;;;23.10;62.90;;;;;;5104356;28;20423;-63
2021/09/16 10:12:00;;;;;;;1.33;0.93;;;23.10;62.90;;;;;;5104858;27;20027;-63
2021/09/16 10:14:26;;;;;;;1.75;1.00;;;23.10;62.80;;;;;;5106952;28;20032;-63
2021/09/16 10:16:53;;;;;;;2.13;0.88;;;23.10;62.70;;;;;;5102322;28;20421;-63
2021/09/16 10:19:19;;;;;;;1.10;1.00;;;23.20;62.70;;;;;;5104021;28;20024;-62
2021/09/16 10:21:46;;;;;;;1.40;1.00;;;23.20;62.70;;;;;;5099268;27;20087;-63
2021/09/16 10:24:16;;;;;;;2.08;1.00;;;23.20;62.60;;;;;;5100556;28;20092;-63
2021/09/16 10:26:45;;;;;;;1.30;1.10;;;23.20;62.50;;;;;;5103400;28;20105;-63
2021/09/16 10:29:29;;;;;;;1.08;1.00;;;23.20;62.50;;;;;;5105305;28;20023;-62
2021/09/16 10:32:07;;;;;;;0.90;0.80;;;23.20;62.50;;;;;;5102710;28;20024;-62
2021/09/16 10:34:47;;;;;;;0.88;0.73;;;23.20;62.50;;;;;;5098007;28;20016;-63
2021/09/16 10:37:15;;;;;;;1.52;0.95;;;23.20;62.50;;;;;;5099122;28;20475;-62
2021/09/16 10:39:43;;;;;;;1.00;0.90;;;23.20;62.50;;;;;;5106914;28;20512;-63
2021/09/16 10:42:10;;;;;;;1.52;0.90;;;23.20;62.40;;;;;;5105198;28;20024;-63
2021/09/16 10:44:38;;;;;;;2.05;1.08;;;23.20;62.30;;;;;;5099815;28;20023;-63
2021/09/16 10:47:16;;;;;;;1.52;1.10;;;23.20;62.30;;;;;;5098468;28;20369;-63
2021/09/16 10:49:42;;;;;;;1.70;1.13;;;23.30;62.30;;;;;;5094537;28;20036;-63
2021/09/16 10:52:11;;;;;;;1.27;1.17;;;23.20;62.20;;;;;;5104647;28;20092;-63
2021/09/16 10:54:50;;;;;;;1.25;0.77;;;23.30;62.20;;;;;;5105430;28;21471;-63
2021/09/16 10:57:17;;;;;;;1.50;0.80;;;23.30;62.10;;;;;;5090793;28;20390;-63
2021/09/16 10:59:49;;;;;;;0.85;0.85;;;23.30;62.00;;;;;;5097372;28;20020;-64
2021/09/16 11:02:15;;;;;;;;;;;23.30;61.90;;;;;;5102930;28;20031;-64
2021/09/16 11:04:56;;;;;;;1.08;0.90;;;23.30;62.00;;;;;;5102508;28;19913;-64
2021/09/16 11:10:15;;;;;;;1.13;0.80;;;23.30;61.90;;;;;;5104825;28;20509;-63
2021/09/16 11:12:43;;;;;;;2.28;1.00;;;23.30;61.80;;;;;;5100662;28;20367;-63
2021/09/16 11:15:10;;;;;;;0.95;0.85;;;23.30;61.80;;;;;;5100092;28;20023;-63
2021/09/16 11:17:37;;;;;;;0.88;0.80;;;23.30;61.80;;;;;;5104117;28;20111;-64
2021/09/16 11:20:04;;;;;;;0.80;0.80;;;23.30;61.80;;;;;;5103726;28;20529;-63
2021/09/16 11:22:30;;;;;;;0.93;0.82;;;23.30;61.80;;;;;;5095706;28;20024;-63
2021/09/16 11:24:58;;;;;;;0.85;0.85;;;23.30;61.70;;;;;;5096121;28;20055;-63
2021/09/16 11:27:25;;;;;;;1.33;1.20;;;23.30;61.70;;;;;;5101291;28;20052;-63
2021/09/16 11:29:51;;;;;;;1.00;0.90;;;23.30;61.70;;;;;;5102691;28;20019;-63
2021/09/16 11:32:17;;;;;;;1.00;0.90;;;23.30;61.60;;;;;;5105918;27;20055;-63
2021/09/16 11:34:55;;;;;;;0.73;0.73;;;23.30;61.60;;;;;;5096186;28;20104;-63
2021/09/16 11:37:28;;;;;;;1.70;0.95;;;23.30;61.50;;;;;;5104501;28;20020;-65
2021/09/16 11:40:17;;;;;;;1.02;0.82;;;23.30;61.50;;;;;;5099132;28;20024;-65
2021/09/16 11:42:46;;;;;;;1.20;1.10;;;23.30;61.50;;;;;;5103950;28;20024;-64
2021/09/16 11:45:16;;;;;;;1.00;1.00;;;23.30;61.50;;;;;;5104337;28;20074;-65
2021/09/16 11:47:44;;;;;;;0.90;0.90;;;23.30;61.50;;;;;;5102400;28;20046;-65
2021/09/16 11:50:23;;;;;;;1.08;1.00;;;23.30;61.50;;;;;;5094400;28;20107;-65
2021/09/16 11:52:54;;;;;;;0.73;0.73;;;23.30;61.50;;;;;;5101031;28;21257;-65
2021/09/16 11:55:21;;;;;;;1.13;0.93;;;23.30;61.50;;;;;;5104649;28;20101;-65
2021/09/16 11:58:08;;;;;;;1.27;1.13;;;23.30;61.50;;;;;;5102252;28;20028;-65
2021/09/16 12:35:16;;;;;;;2.00;1.10;;;23.30;61.40;;;;;;5104738;28;20112;-69
2021/09/16 12:37:46;;;;;;;0.98;0.88;;;23.30;61.30;;;;;;5107394;28;20088;-69
2021/09/16 12:40:27;;;;;;;0.90;0.90;;;23.30;61.30;;;;;;5107062;27;20024;-69
2021/09/16 12:43:04;;;;;;;1.42;0.95;;;23.30;61.20;;;;;;5105835;27;20024;-68
2021/09/16 12:45:30;;;;;;;1.27;1.10;;;23.40;61.20;;;;;;5105816;27;20120;-68
2021/09/16 12:47:57;;;;;;;3.10;1.30;;;23.40;61.10;;;;;;5105833;28;20092;-69
2021/09/16 12:50:24;;;;;;;1.38;1.23;;;23.40;61.10;;;;;;5107559;27;20028;-68
2021/09/16 12:52:50;;;;;;;1.02;0.93;;;23.40;61.00;;;;;;5108063;27;20032;-69
2021/09/16 12:55:17;;;;;;;0.90;0.90;;;23.40;60.90;;;;;;5101676;28;20027;-67
2021/09/16 13:01:39;;;;;;;1.50;0.90;;;23.40;60.70;;;;;;5102847;28;20042;-67
2021/09/16 13:04:05;;;;;;;1.13;0.80;;;23.40;60.70;;;;;;5104371;27;20485;-68
2021/09/16 13:06:32;;;;;;;2.67;1.33;;;23.40;60.70;;;;;;5103874;28;20130;-67
2021/09/16 13:08:59;;;;;;;1.17;1.00;;;23.40;60.60;;;;;;5105782;28;20028;-68
2021/09/16 13:11:26;;;;;;;1.42;1.00;;;23.40;60.50;;;;;;5105560;28;20022;-67
2021/09/16 13:14:05;;;;;;;1.10;1.00;;;23.40;60.50;;;;;;5106206;28;20123;-68
2021/09/16 13:16:32;;;;;;;1.10;1.00;;;23.40;60.40;;;;;;5104905;27;20477;-68
2021/09/16 13:18:58;;;;;;;0.80;0.80;;;23.40;60.40;;;;;;5109538;28;20024;-68
2021/09/16 13:21:25;;;;;;;1.48;1.13;;;23.40;60.30;;;;;;5102556;27;20031;-68
2021/09/16 13:23:50;;;;;;;1.50;1.40;;;23.40;60.30;;;;;;5105572;27;20030;-68
2021/09/16 13:26:16;;;;;;;1.13;1.02;;;23.40;60.20;;;;;;5107731;28;20028;-68
2021/09/16 13:28:42;;;;;;;1.73;1.25;;;23.40;60.20;;;;;;5101525;28;20023;-68
2021/09/16 13:31:08;;;;;;;1.00;0.90;;;23.50;60.10;;;;;;5103909;28;20513;-68